Time;durP1;ratioP1;P1;durP2;ratioP2;P2;SDS_P1;SDS_P2;PMS_P1;PMS_P2;Temp;Humidity;BMP_temperature;BMP_pressure;BME280_temperature;BME280_humidity;BME280_pressure;Samples;Min_cycle;Max_cycle;Signal;HPM_P1;HPM_P2
2023/07/02 00:01:11;;;;;;;;;;;;;;;27.44;37.33;99893.11;104536;1284;61435;-83
2023/07/02 00:03:39;;;;;;;;;;;;;;;27.45;37.17;99893.46;104595;1284;62162;-83
2023/07/02 00:06:05;;;;;;;;;;;;;;;27.44;37.24;99894.01;104579;1289;65720;-83
2023/07/02 00:08:30;;;;;;;;;;;;;;;27.44;37.26;99890.05;104486;1286;59741;-83
2023/07/02 00:10:56;;;;;;;;;;;;;;;27.44;37.26;99886.66;104388;1285;62277;-83
2023/07/02 00:13:21;;;;;;;;;;;;;;;27.44;37.40;99883.04;104559;1286;61518;-83
2023/07/02 00:15:47;;;;;;;;;;;;;;;27.43;37.28;99881.48;104656;1284;62267;-83
2023/07/02 00:18:16;;;;;;;;;;;;;;;27.44;37.42;99881.95;104402;1285;72621;-83
2023/07/02 00:20:43;;;;;;;;;;;;;;;27.43;37.45;99880.20;104613;1286;60082;-83
2023/07/02 00:23:09;;;;;;;;;;;;;;;27.43;37.49;99882.58;104634;1284;61423;-83
2023/07/02 00:25:36;;;;;;;;;;;;;;;27.43;37.32;99897.58;104447;1286;65003;-83
2023/07/02 00:28:01;;;;;;;;;;;;;;;27.43;37.32;99890.70;104467;1287;61355;-83
2023/07/02 00:30:26;;;;;;;;;;;;;;;27.43;37.34;99891.95;104580;1285;60084;-83
2023/07/02 00:32:52;;;;;;;;;;;;;;;27.43;37.21;99887.10;104427;1284;61329;-83
2023/07/02 00:35:17;;;;;;;;;;;;;;;27.43;37.35;99878.77;104674;1289;60023;-83
2023/07/02 00:37:43;;;;;;;;;;;;;;;27.43;37.49;99890.73;104542;1284;64865;-83
2023/07/02 00:40:08;;;;;;;;;;;;;;;27.43;37.52;99889.48;104524;1285;61530;-83
2023/07/02 00:42:34;;;;;;;;;;;;;;;27.43;37.34;99870.84;104533;1284;60064;-83
2023/07/02 00:45:02;;;;;;;;;;;;;;;27.42;37.41;99863.16;104429;1285;59952;-83
2023/07/02 00:47:32;;;;;;;;;;;;;;;27.42;37.31;99864.38;104344;1288;61293;-83
2023/07/02 00:49:57;;;;;;;;;;;;;;;27.43;37.59;99872.88;104519;1284;65863;-83
2023/07/02 00:52:23;;;;;;;;;;;;;;;27.42;37.55;99876.50;104817;1284;61469;-82
2023/07/02 00:54:49;;;;;;;;;;;;;;;27.43;37.54;99880.09;104326;1288;61408;-83
2023/07/02 00:57:14;;;;;;;;;;;;;;;27.42;37.47;99871.65;104504;1284;60055;-83
2023/07/02 00:59:40;;;;;;;;;;;;;;;27.42;37.30;99854.83;104462;1284;61160;-84
2023/07/02 01:02:06;;;;;;;;;;;;;;;27.42;37.02;99864.98;104450;1284;66887;-83
2023/07/02 01:04:31;;;;;;;;;;;;;;;27.42;37.25;99871.14;104614;1284;60033;-83
2023/07/02 01:06:57;;;;;;;;;;;;;;;27.42;37.45;99854.11;104494;1284;61423;-83
2023/07/02 01:09:23;;;;;;;;;;;;;;;27.42;37.38;99850.52;104489;1284;61396;-83
2023/07/02 01:11:56;;;;;;;;;;;;;;;27.42;37.29;99860.66;104475;1284;61342;-83
2023/07/02 01:14:43;;;;;;;;;;;;;;;27.42;37.31;99861.77;104450;1284;59909;-83
2023/07/02 01:17:08;;;;;;;;;;;;;;;27.42;37.30;99889.03;104382;1284;62315;-83
2023/07/02 01:19:42;;;;;;;;;;;;;;;27.42;37.17;99896.09;104639;1284;61402;-83
2023/07/02 01:22:07;;;;;;;;;;;;;;;27.42;37.17;99876.02;104567;1289;65861;-83
2023/07/02 01:24:33;;;;;;;;;;;;;;;27.42;37.32;99875.31;104426;1284;59925;-83
2023/07/02 01:27:01;;;;;;;;;;;;;;;27.41;37.29;99887.81;104475;1284;61475;-83
2023/07/02 01:29:28;;;;;;;;;;;;;;;27.42;37.34;99898.83;104596;1285;61367;-83
2023/07/02 01:31:54;;;;;;;;;;;;;;;27.42;37.16;99897.51;104491;1284;65846;-83
2023/07/02 01:34:19;;;;;;;;;;;;;;;27.42;37.40;99894.45;104619;1288;61849;-83
2023/07/02 01:36:44;;;;;;;;;;;;;;;27.42;37.41;99887.74;104529;1284;61393;-83
2023/07/02 01:39:10;;;;;;;;;;;;;;;27.41;37.25;99884.02;104579;1284;61410;-83
2023/07/02 01:41:49;;;;;;;;;;;;;;;27.41;37.55;99893.78;104534;1284;60120;-84
2023/07/02 01:44:15;;;;;;;;;;;;;;;27.41;37.42;99897.95;104343;1284;67035;-84
2023/07/02 01:46:40;;;;;;;;;;;;;;;27.41;37.18;99902.13;104551;1284;59993;-84
2023/07/02 01:49:05;;;;;;;;;;;;;;;27.41;37.47;99898.48;104513;1284;61360;-84
2023/07/02 01:51:31;;;;;;;;;;;;;;;27.41;37.14;99896.70;104686;1287;60142;-84
2023/07/02 01:53:56;;;;;;;;;;;;;;;27.41;37.26;99888.40;104508;1284;62139;-84
2023/07/02 01:56:22;;;;;;;;;;;;;;;27.41;37.29;99891.33;104506;1284;62278;-84
2023/07/02 01:58:47;;;;;;;;;;;;;;;27.41;37.50;99898.33;104671;1284;60054;-83
2023/07/02 02:01:13;;;;;;;;;;;;;;;27.41;37.30;99896.60;104607;1284;61411;-83
2023/07/02 02:03:38;;;;;;;;;;;;;;;27.41;37.18;99900.50;104598;1284;60014;-83
2023/07/02 02:06:04;;;;;;;;;;;;;;;27.41;37.34;99895.98;104715;1287;59409;-83
2023/07/02 02:08:29;;;;;;;;;;;;;;;27.41;37.20;99899.77;104580;1284;61336;-83
2023/07/02 02:10:54;;;;;;;;;;;;;;;27.41;37.24;99897.80;104747;1284;60150;-83
2023/07/02 02:13:20;;;;;;;;;;;;;;;27.41;37.37;99895.33;104689;1284;62221;-83
2023/07/02 02:15:45;;;;;;;;;;;;;;;27.40;37.41;99896.98;104412;1287;60486;-83
2023/07/02 02:18:11;;;;;;;;;;;;;;;27.40;37.18;99894.42;104406;1287;64868;-83
2023/07/02 02:20:36;;;;;;;;;;;;;;;27.41;37.51;99891.51;104437;1286;61432;-83
2023/07/02 02:23:02;;;;;;;;;;;;;;;27.40;37.45;99889.96;104344;1284;60068;-83
2023/07/02 02:25:28;;;;;;;;;;;;;;;27.40;37.27;99889.77;104636;1284;62165;-83
2023/07/02 02:27:53;;;;;;;;;;;;;;;27.40;37.50;99882.52;104510;1284;61279;-83
2023/07/02 02:30:19;;;;;;;;;;;;;;;27.40;37.41;99876.91;104302;1286;60133;-83
2023/07/02 02:32:44;;;;;;;;;;;;;;;27.40;37.24;99879.84;104457;1284;61430;-83
2023/07/02 02:35:10;;;;;;;;;;;;;;;27.40;37.52;99878.27;104662;1287;60023;-84
2023/07/02 02:37:36;;;;;;;;;;;;;;;27.40;37.59;99874.98;104728;1284;59737;-83
2023/07/02 02:40:02;;;;;;;;;;;;;;;27.40;37.51;99874.31;104341;1284;61260;-83
2023/07/02 02:42:27;;;;;;;;;;;;;;;27.40;37.63;99872.83;104477;1284;60094;-83
2023/07/02 02:44:53;;;;;;;;;;;;;;;27.40;37.42;99880.62;104766;1288;61351;-83
2023/07/02 02:47:18;;;;;;;;;;;;;;;27.40;37.48;99881.13;104523;1284;61723;-83
2023/07/02 02:49:44;;;;;;;;;;;;;;;27.40;37.64;99874.28;104502;1284;61407;-83
2023/07/02 02:52:09;;;;;;;;;;;;;;;27.40;37.44;99875.11;104292;1284;60101;-83
2023/07/02 02:54:34;;;;;;;;;;;;;;;27.40;37.42;99876.07;104751;1283;61348;-83
2023/07/02 02:57:00;;;;;;;;;;;;;;;27.40;37.49;99877.70;104727;1284;61381;-83
2023/07/02 02:59:25;;;;;;;;;;;;;;;27.40;37.41;99884.58;104556;1284;60010;-83
2023/07/02 03:01:51;;;;;;;;;;;;;;;27.40;37.48;99880.91;104729;1284;62363;-83
2023/07/02 03:04:16;;;;;;;;;;;;;;;27.41;37.62;99879.27;104721;1284;60104;-83
2023/07/02 03:06:43;;;;;;;;;;;;;;;27.40;37.39;99884.33;104416;1289;59727;-83
2023/07/02 03:09:08;;;;;;;;;;;;;;;27.40;37.30;99885.76;104370;1285;61420;-83
2023/07/02 03:11:34;;;;;;;;;;;;;;;27.41;37.45;99892.06;104698;1284;60090;-83
2023/07/02 03:13:59;;;;;;;;;;;;;;;27.40;37.64;99894.80;104449;1284;61408;-83
2023/07/02 03:16:25;;;;;;;;;;;;;;;27.41;37.46;99893.11;104588;1283;59771;-83
2023/07/02 03:18:50;;;;;;;;;;;;;;;27.41;37.50;99893.68;104391;1284;61519;-83
2023/07/02 03:21:16;;;;;;;;;;;;;;;27.41;37.68;99895.48;104610;1284;61473;-83
2023/07/02 03:23:41;;;;;;;;;;;;;;;27.41;37.67;99890.19;104270;1284;61397;-83
2023/07/02 03:26:07;;;;;;;;;;;;;;;27.42;37.62;99891.40;104584;1284;60055;-83
2023/07/02 03:28:34;;;;;;;;;;;;;;;27.41;37.71;99892.15;104389;1284;60006;-83
2023/07/02 03:31:00;;;;;;;;;;;;;;;27.42;37.73;99888.15;104575;1284;61414;-83
2023/07/02 03:33:25;;;;;;;;;;;;;;;27.42;37.82;99887.95;104307;1284;60039;-83
2023/07/02 03:35:51;;;;;;;;;;;;;;;27.42;37.87;99887.58;104530;1283;61414;-83
2023/07/02 03:38:16;;;;;;;;;;;;;;;27.42;37.77;99887.23;104568;1284;61403;-83
2023/07/02 03:40:42;;;;;;;;;;;;;;;27.42;37.73;99891.71;104587;1288;60021;-83
2023/07/02 03:43:07;;;;;;;;;;;;;;;27.42;37.60;99888.84;104265;1286;60075;-83
2023/07/02 03:45:32;;;;;;;;;;;;;;;27.42;37.74;99883.75;104221;1284;62213;-83
2023/07/02 03:47:58;;;;;;;;;;;;;;;27.42;37.75;99883.79;104227;1284;62330;-83
2023/07/02 03:50:24;;;;;;;;;;;;;;;27.42;37.65;99885.55;104435;1284;60022;-83
2023/07/02 03:52:49;;;;;;;;;;;;;;;27.42;37.76;99883.92;104593;1285;59992;-83
2023/07/02 03:55:14;;;;;;;;;;;;;;;27.42;37.67;99888.43;104547;1284;60036;-83
2023/07/02 03:57:40;;;;;;;;;;;;;;;27.42;37.74;99886.83;104580;1284;59998;-83
2023/07/02 04:00:06;;;;;;;;;;;;;;;27.43;37.90;99885.89;104805;1284;61424;-83
2023/07/02 04:02:31;;;;;;;;;;;;;;;27.43;37.64;99887.64;104660;1284;61391;-83
2023/07/02 04:04:58;;;;;;;;;;;;;;;27.43;37.85;99889.85;104340;1284;63654;-83
2023/07/02 04:07:23;;;;;;;;;;;;;;;27.43;37.80;99893.23;104604;1283;66848;-83
2023/07/02 04:09:49;;;;;;;;;;;;;;;27.43;37.97;99892.83;104816;1284;61430;-83
2023/07/02 04:12:14;;;;;;;;;;;;;;;27.43;37.80;99894.11;104682;1284;61430;-83
2023/07/02 04:14:40;;;;;;;;;;;;;;;27.43;37.95;99903.40;104557;1284;61386;-83
2023/07/02 04:17:05;;;;;;;;;;;;;;;27.43;38.23;99911.81;104485;1284;60012;-83
2023/07/02 04:19:31;;;;;;;;;;;;;;;27.43;38.15;99911.80;104440;1285;61465;-83
2023/07/02 04:21:56;;;;;;;;;;;;;;;27.43;38.10;99915.07;104737;1284;59395;-83
2023/07/02 04:24:22;;;;;;;;;;;;;;;27.43;38.00;99919.94;104450;1284;60561;-83
2023/07/02 04:26:47;;;;;;;;;;;;;;;27.43;37.92;99917.05;104433;1284;61386;-83
2023/07/02 04:29:13;;;;;;;;;;;;;;;27.43;37.98;99921.73;104678;1284;59275;-83
2023/07/02 04:31:38;;;;;;;;;;;;;;;27.43;38.37;99922.14;104493;1287;61446;-83
2023/07/02 04:34:05;;;;;;;;;;;;;;;27.44;38.13;99923.89;104350;1284;61260;-83
2023/07/02 04:36:31;;;;;;;;;;;;;;;27.43;38.17;99925.19;104515;1285;59670;-83
2023/07/02 04:38:56;;;;;;;;;;;;;;;27.44;38.12;99928.95;104543;1287;62277;-83
2023/07/02 04:41:22;;;;;;;;;;;;;;;27.44;38.24;99925.52;104502;1284;61440;-83
2023/07/02 04:43:48;;;;;;;;;;;;;;;27.44;38.15;99928.95;104526;1284;61288;-83
2023/07/02 04:46:14;;;;;;;;;;;;;;;27.44;38.20;99927.67;104402;1284;61405;-83
2023/07/02 04:48:39;;;;;;;;;;;;;;;27.44;38.39;99929.08;104445;1284;60222;-83
2023/07/02 04:51:04;;;;;;;;;;;;;;;27.43;38.33;99936.56;104419;1284;61264;-83
2023/07/02 04:53:30;;;;;;;;;;;;;;;27.43;38.46;99936.20;104452;1284;61367;-83
2023/07/02 04:55:57;;;;;;;;;;;;;;;27.45;38.13;99938.42;104359;1284;59913;-83
2023/07/02 04:58:22;;;;;;;;;;;;;;;27.45;38.27;99936.73;104545;1284;59982;-83
2023/07/02 05:00:48;;;;;;;;;;;;;;;27.46;38.41;99936.33;104519;1284;62160;-83
2023/07/02 05:03:13;;;;;;;;;;;;;;;27.46;38.38;99933.98;104529;1284;60012;-83
2023/07/02 05:05:40;;;;;;;;;;;;;;;27.45;38.49;99932.95;104327;1285;73571;-83
2023/07/02 05:08:05;;;;;;;;;;;;;;;27.46;38.40;99930.20;104486;1284;61162;-83
2023/07/02 05:10:31;;;;;;;;;;;;;;;27.47;38.34;99922.80;104583;1284;61440;-83
2023/07/02 05:12:56;;;;;;;;;;;;;;;27.48;38.39;99923.44;104526;1284;61379;-83
2023/07/02 05:15:23;;;;;;;;;;;;;;;27.50;38.56;99927.58;104624;1285;59547;-83
2023/07/02 05:17:49;;;;;;;;;;;;;;;27.51;38.64;99925.51;104547;1283;61757;-83
2023/07/02 05:20:16;;;;;;;;;;;;;;;27.52;38.48;99925.16;104633;1284;61158;-83
2023/07/02 05:22:41;;;;;;;;;;;;;;;27.53;38.53;99925.91;104698;1284;62335;-83
2023/07/02 05:25:07;;;;;;;;;;;;;;;27.54;38.56;99927.20;104413;1284;61259;-83
2023/07/02 05:27:32;;;;;;;;;;;;;;;27.57;38.69;99927.16;104421;1285;60021;-83
2023/07/02 05:29:58;;;;;;;;;;;;;;;27.58;38.59;99927.21;104483;1284;62118;-83
2023/07/02 05:32:23;;;;;;;;;;;;;;;27.59;38.54;99928.64;104383;1284;62238;-83
2023/07/02 05:34:49;;;;;;;;;;;;;;;27.61;38.63;99925.40;104305;1284;60076;-83
2023/07/02 05:37:15;;;;;;;;;;;;;;;27.61;38.74;99928.05;104346;1285;61427;-83
2023/07/02 05:39:41;;;;;;;;;;;;;;;27.61;38.75;99929.88;104560;1284;65642;-83
2023/07/02 05:42:06;;;;;;;;;;;;;;;27.62;38.84;99928.92;104215;1284;60073;-83
2023/07/02 05:44:32;;;;;;;;;;;;;;;27.62;38.77;99930.56;104419;1284;62269;-83
2023/07/02 05:46:57;;;;;;;;;;;;;;;27.63;38.84;99938.02;104625;1284;61385;-83
2023/07/02 05:49:23;;;;;;;;;;;;;;;27.64;38.67;99940.95;104559;1284;60061;-83
2023/07/02 05:51:48;;;;;;;;;;;;;;;27.65;38.88;99940.89;104422;1284;60037;-83
2023/07/02 05:54:14;;;;;;;;;;;;;;;27.66;38.69;99942.40;104226;1284;60042;-83
2023/07/02 05:56:39;;;;;;;;;;;;;;;27.67;38.80;99940.40;104482;1284;61261;-83
2023/07/02 05:59:04;;;;;;;;;;;;;;;27.68;38.88;99935.95;104549;1284;61340;-83
2023/07/02 06:01:30;;;;;;;;;;;;;;;27.69;38.74;99939.51;104290;1285;59458;-83
2023/07/02 06:03:55;;;;;;;;;;;;;;;27.70;38.82;99935.58;104289;1284;59779;-83
2023/07/02 06:06:22;;;;;;;;;;;;;;;27.70;38.89;99936.64;104195;1284;61464;-83
2023/07/02 06:08:48;;;;;;;;;;;;;;;27.71;38.78;99938.90;104357;1284;61395;-83
2023/07/02 06:11:15;;;;;;;;;;;;;;;27.72;38.84;99945.50;104447;1284;61275;-83
2023/07/02 06:13:40;;;;;;;;;;;;;;;27.72;38.77;99951.08;104411;1284;62266;-83
2023/07/02 06:16:05;;;;;;;;;;;;;;;27.73;38.95;99949.20;104045;1284;60127;-83
2023/07/02 06:18:31;;;;;;;;;;;;;;;27.73;38.96;99950.25;104465;1284;62225;-83
2023/07/02 06:20:56;;;;;;;;;;;;;;;27.73;39.16;99952.02;104139;1284;62249;-83
2023/07/02 06:23:22;;;;;;;;;;;;;;;27.74;39.24;99949.42;104233;1284;61357;-83
2023/07/02 06:25:47;;;;;;;;;;;;;;;27.75;39.09;99947.16;104543;1284;60350;-83
2023/07/02 06:28:13;;;;;;;;;;;;;;;27.75;39.37;99940.04;104500;1284;61376;-83
2023/07/02 06:30:38;;;;;;;;;;;;;;;27.75;39.06;99942.71;104553;1283;61351;-83
2023/07/02 06:33:03;;;;;;;;;;;;;;;27.76;39.39;99941.19;104426;1284;61275;-84
2023/07/02 06:35:29;;;;;;;;;;;;;;;27.77;39.21;99936.99;104244;1284;61331;-84
2023/07/02 06:37:55;;;;;;;;;;;;;;;27.77;39.30;99940.92;104428;1284;61415;-84
2023/07/02 06:40:20;;;;;;;;;;;;;;;27.78;39.33;99941.38;104348;1284;61779;-84
2023/07/02 06:42:46;;;;;;;;;;;;;;;27.79;39.33;99940.37;104291;1283;60010;-83
2023/07/02 06:45:11;;;;;;;;;;;;;;;27.80;39.50;99939.92;104488;1284;61916;-83
2023/07/02 06:47:38;;;;;;;;;;;;;;;27.80;39.19;99937.36;104591;1283;59402;-84
2023/07/02 06:50:04;;;;;;;;;;;;;;;27.80;39.30;99936.58;104250;1284;61453;-84
2023/07/02 06:52:29;;;;;;;;;;;;;;;27.81;39.23;99935.61;104477;1284;59988;-83
2023/07/02 06:54:55;;;;;;;;;;;;;;;27.82;39.34;99937.27;104405;1286;61430;-83
2023/07/02 06:57:20;;;;;;;;;;;;;;;27.83;39.17;99935.61;104625;1284;61837;-83
2023/07/02 06:59:45;;;;;;;;;;;;;;;27.83;39.40;99937.73;104246;1284;64920;-83
2023/07/02 07:02:11;;;;;;;;;;;;;;;27.84;39.47;99940.23;104392;1284;61370;-83
2023/07/02 07:04:37;;;;;;;;;;;;;;;27.83;39.69;99940.92;104480;1284;60438;-83
2023/07/02 07:07:03;;;;;;;;;;;;;;;27.84;39.58;99940.55;104318;1284;62104;-83
2023/07/02 07:09:29;;;;;;;;;;;;;;;27.84;39.70;99940.70;103898;1284;622351;-83
2023/07/02 07:11:55;;;;;;;;;;;;;;;27.85;39.62;99943.50;104453;1284;61361;-83
2023/07/02 07:14:20;;;;;;;;;;;;;;;27.85;39.72;99945.25;104554;1286;59805;-83
2023/07/02 07:16:45;;;;;;;;;;;;;;;27.85;39.79;99946.16;104552;1284;61426;-83
2023/07/02 07:19:11;;;;;;;;;;;;;;;27.86;39.79;99946.82;104314;1284;61358;-83
2023/07/02 07:21:36;;;;;;;;;;;;;;;27.86;39.76;99947.54;104518;1284;61422;-83
2023/07/02 07:24:02;;;;;;;;;;;;;;;27.86;39.86;99950.21;104233;1284;61469;-83
2023/07/02 07:26:27;;;;;;;;;;;;;;;27.86;39.73;99947.63;104472;1284;61272;-83
2023/07/02 07:28:55;;;;;;;;;;;;;;;27.87;39.69;99945.59;104294;1287;59972;-83
2023/07/02 07:31:21;;;;;;;;;;;;;;;27.87;39.89;99945.21;104508;1284;60439;-83
2023/07/02 07:33:48;;;;;;;;;;;;;;;27.87;40.02;99943.77;104461;1284;61372;-83
2023/07/02 07:36:14;;;;;;;;;;;;;;;27.87;39.87;99941.42;104278;1284;61372;-84
2023/07/02 07:38:39;;;;;;;;;;;;;;;27.87;40.14;99941.02;104294;1284;60445;-83
2023/07/02 07:41:05;;;;;;;;;;;;;;;27.88;39.91;99942.11;104079;1286;61496;-83
2023/07/02 07:43:30;;;;;;;;;;;;;;;27.88;39.97;99944.36;104104;1286;62308;-85
2023/07/02 07:45:56;;;;;;;;;;;;;;;27.88;40.12;99938.48;103938;1287;61274;-84
2023/07/02 07:48:21;;;;;;;;;;;;;;;27.88;40.22;99945.48;103975;1289;60264;-84
2023/07/02 07:50:47;;;;;;;;;;;;;;;27.88;39.91;99944.02;104107;1286;61268;-84
2023/07/02 07:53:13;;;;;;;;;;;;;;;27.88;40.11;99946.00;104360;1286;61395;-84
2023/07/02 07:55:38;;;;;;;;;;;;;;;27.88;40.25;99946.17;104204;1287;60289;-83
2023/07/02 07:58:04;;;;;;;;;;;;;;;27.88;40.15;99946.54;104164;1287;61494;-83
2023/07/02 08:00:29;;;;;;;;;;;;;;;27.88;40.07;99946.50;104191;1286;65907;-83
2023/07/02 08:02:55;;;;;;;;;;;;;;;27.89;40.08;99947.20;104224;1286;61511;-83
2023/07/02 08:05:21;;;;;;;;;;;;;;;27.88;40.00;99945.78;104173;1286;61454;-83
2023/07/02 08:07:46;;;;;;;;;;;;;;;27.89;40.01;99950.63;104188;1287;61392;-83
2023/07/02 08:10:12;;;;;;;;;;;;;;;27.89;40.19;99951.15;104028;1286;61386;-83
2023/07/02 08:12:37;;;;;;;;;;;;;;;27.89;40.05;99949.55;104399;1284;59935;-83
2023/07/02 08:15:03;;;;;;;;;;;;;;;27.89;40.09;99948.27;104360;1284;61408;-83
2023/07/02 08:17:30;;;;;;;;;;;;;;;27.89;39.99;99946.83;104349;1284;62262;-83
2023/07/02 08:19:57;;;;;;;;;;;;;;;27.88;39.97;99946.67;104326;1284;65045;-83
2023/07/02 08:22:22;;;;;;;;;;;;;;;27.89;39.95;99944.10;104412;1284;61351;-83
2023/07/02 08:24:49;;;;;;;;;;;;;;;27.89;39.97;99945.92;104299;1284;61357;-83
2023/07/02 08:27:19;;;;;;;;;;;;;;;27.89;40.05;99951.32;104407;1284;62165;-83
2023/07/02 08:29:48;;;;;;;;;;;;;;;27.89;39.88;99955.81;104475;1284;64898;-83
2023/07/02 08:32:13;;;;;;;;;;;;;;;27.89;39.85;99952.57;104460;1284;65889;-84
2023/07/02 08:34:39;;;;;;;;;;;;;;;27.89;39.82;99953.11;104600;1284;61475;-84
2023/07/02 08:37:04;;;;;;;;;;;;;;;27.89;39.88;99950.57;104105;1284;62233;-83
2023/07/02 08:39:30;;;;;;;;;;;;;;;27.90;40.09;99953.61;104139;1284;61396;-83
2023/07/02 08:41:55;;;;;;;;;;;;;;;27.89;39.87;99950.40;104442;1284;61495;-83
2023/07/02 08:44:23;;;;;;;;;;;;;;;27.89;39.89;99950.73;104188;1284;61397;-83
2023/07/02 08:46:50;;;;;;;;;;;;;;;27.89;39.69;99953.61;104361;1284;62155;-83
2023/07/02 08:49:16;;;;;;;;;;;;;;;27.89;39.88;99953.08;104306;1284;61385;-83
2023/07/02 08:51:42;;;;;;;;;;;;;;;27.90;39.79;99956.98;104381;1284;62155;-83
2023/07/02 08:54:08;;;;;;;;;;;;;;;27.90;39.95;99958.64;104358;1284;61431;-84
2023/07/02 08:56:33;;;;;;;;;;;;;;;27.90;39.70;99959.90;104262;1284;61437;-84
2023/07/02 08:58:59;;;;;;;;;;;;;;;27.90;39.74;99959.02;104355;1284;61344;-83
2023/07/02 09:01:24;;;;;;;;;;;;;;;27.90;39.73;99963.52;104484;1284;60343;-83
2023/07/02 09:03:50;;;;;;;;;;;;;;;27.90;39.79;99953.41;104524;1284;64630;-83
2023/07/02 09:06:17;;;;;;;;;;;;;;;27.90;39.66;99955.21;104603;1284;61378;-84
2023/07/02 09:08:42;;;;;;;;;;;;;;;27.90;39.80;99955.00;104518;1286;61284;-83
2023/07/02 09:11:12;;;;;;;;;;;;;;;27.90;39.80;99949.58;104242;1286;60079;-83
2023/07/02 09:13:44;;;;;;;;;;;;;;;27.90;39.86;99944.88;104325;1285;63839;-83
2023/07/02 09:16:28;;;;;;;;;;;;;;;27.90;39.63;99950.09;104144;1286;65754;-83
2023/07/02 09:18:56;;;;;;;;;;;;;;;27.90;39.60;99947.55;104347;1286;60079;-83
2023/07/02 09:21:22;;;;;;;;;;;;;;;27.90;39.48;99945.45;104452;1286;62123;-83
2023/07/02 09:23:48;;;;;;;;;;;;;;;27.90;39.84;99947.61;104324;1286;61401;-83
2023/07/02 09:26:22;;;;;;;;;;;;;;;27.90;39.64;99949.20;104013;1288;62301;-83
2023/07/02 09:28:48;;;;;;;;;;;;;;;27.90;39.80;99945.48;104379;1285;61172;-83
2023/07/02 09:31:13;;;;;;;;;;;;;;;27.89;39.51;99947.31;104236;1285;62277;-83
2023/07/02 09:33:39;;;;;;;;;;;;;;;27.89;39.87;99949.70;104316;1287;61285;-83
2023/07/02 09:36:04;;;;;;;;;;;;;;;27.89;39.71;99945.89;103929;1287;59998;-83
2023/07/02 09:38:30;;;;;;;;;;;;;;;27.88;39.54;99941.61;104327;1287;61448;-84
2023/07/02 09:40:55;;;;;;;;;;;;;;;27.89;39.63;99945.17;104250;1285;62307;-84
2023/07/02 09:43:21;;;;;;;;;;;;;;;27.89;39.71;99942.66;104195;1285;60078;-84
2023/07/02 09:45:49;;;;;;;;;;;;;;;27.88;39.61;99941.08;104205;1285;61345;-83
2023/07/02 09:48:15;;;;;;;;;;;;;;;27.88;39.61;99942.70;104229;1286;60013;-83
2023/07/02 09:50:41;;;;;;;;;;;;;;;27.88;39.63;99946.33;104241;1287;61296;-83
2023/07/02 09:53:06;;;;;;;;;;;;;;;27.88;39.63;99942.95;104314;1286;61168;-83
2023/07/02 09:55:32;;;;;;;;;;;;;;;27.88;39.43;99943.45;104149;1286;62270;-83
2023/07/02 09:57:57;;;;;;;;;;;;;;;27.88;39.30;99946.91;104069;1286;61285;-83
2023/07/02 10:00:23;;;;;;;;;;;;;;;27.88;39.59;99945.87;104407;1286;62161;-83
2023/07/02 10:02:49;;;;;;;;;;;;;;;27.88;39.31;99946.20;104208;1286;62325;-83
2023/07/02 10:05:31;;;;;;;;;;;;;;;27.88;39.24;99943.36;104103;1286;59358;-83
2023/07/02 10:07:57;;;;;;;;;;;;;;;27.87;39.19;99939.05;104284;1287;64760;-83
2023/07/02 10:10:31;;;;;;;;;;;;;;;27.87;39.26;99939.79;104517;1288;61399;-83
2023/07/02 10:12:57;;;;;;;;;;;;;;;27.87;39.12;99940.17;104022;1286;61857;-83
2023/07/02 10:15:26;;;;;;;;;;;;;;;27.86;39.24;99940.95;104043;1286;61343;-83
2023/07/02 10:17:56;;;;;;;;;;;;;;;27.86;39.02;99943.73;104256;1286;63784;-83
2023/07/02 10:20:35;;;;;;;;;;;;;;;27.86;39.23;99947.87;104443;1285;65643;-83
2023/07/02 10:23:24;;;;;;;;;;;;;;;27.85;39.19;99946.86;104537;1286;61141;-83
2023/07/02 10:25:49;;;;;;;;;;;;;;;27.85;39.16;99950.72;103990;1290;61386;-83
2023/07/02 10:28:16;;;;;;;;;;;;;;;27.84;39.35;99950.24;103971;1291;60057;-83
2023/07/02 10:30:42;;;;;;;;;;;;;;;27.84;39.17;99947.91;103800;1290;60039;-83
2023/07/02 10:33:09;;;;;;;;;;;;;;;27.84;39.21;99949.95;103748;1290;62278;-83
2023/07/02 10:35:34;;;;;;;;;;;;;;;27.83;39.20;99951.06;103855;1290;61288;-83
2023/07/02 10:38:00;;;;;;;;;;;;;;;27.83;39.40;99952.72;103968;1290;61391;-83
2023/07/02 10:40:26;;;;;;;;;;;;;;;27.83;39.11;99950.79;103980;1289;60269;-83
2023/07/02 10:42:52;;;;;;;;;;;;;;;27.82;39.33;99949.10;103713;1290;61505;-83
2023/07/02 10:45:18;;;;;;;;;;;;;;;27.82;39.21;99951.41;103730;1292;61360;-83
2023/07/02 10:47:44;;;;;;;;;;;;;;;27.81;39.16;99948.42;103725;1291;59261;-83
2023/07/02 10:50:15;;;;;;;;;;;;;;;27.81;39.43;99948.46;103798;1291;60031;-83
2023/07/02 10:52:41;;;;;;;;;;;;;;;27.81;39.32;99947.52;104072;1290;67027;-83
2023/07/02 10:55:07;;;;;;;;;;;;;;;27.80;39.21;99939.86;103843;1291;62289;-83
2023/07/02 10:57:32;;;;;;;;;;;;;;;27.80;39.44;99934.52;103921;1293;61476;-83
2023/07/02 11:00:04;;;;;;;;;;;;;;;27.79;39.34;99936.77;103906;1293;61285;-83
2023/07/02 11:02:36;;;;;;;;;;;;;;;27.80;39.59;99931.95;103751;1293;65779;-83
2023/07/02 11:05:02;;;;;;;;;;;;;;;27.80;39.53;99926.75;103988;1290;61293;-83
2023/07/02 11:07:28;;;;;;;;;;;;;;;27.80;39.41;99928.72;104134;1289;59267;-83
2023/07/02 11:09:53;;;;;;;;;;;;;;;27.79;39.68;99925.70;103914;1290;60065;-83
2023/07/02 11:12:22;;;;;;;;;;;;;;;27.79;39.55;99924.40;103861;1290;61278;-83
2023/07/02 11:14:47;;;;;;;;;;;;;;;27.80;39.41;99922.92;103819;1289;61383;-83
2023/07/02 11:17:13;;;;;;;;;;;;;;;27.80;39.88;99921.83;103827;1289;62337;-83
2023/07/02 11:19:38;;;;;;;;;;;;;;;27.80;39.59;99923.59;103968;1290;61770;-83
2023/07/02 11:22:04;;;;;;;;;;;;;;;27.80;39.41;99927.21;103877;1290;61436;-83
2023/07/02 11:24:33;;;;;;;;;;;;;;;27.81;39.73;99927.10;103773;1289;66815;-83
2023/07/02 11:26:59;;;;;;;;;;;;;;;27.81;39.76;99927.14;104064;1289;60052;-83
2023/07/02 11:29:24;;;;;;;;;;;;;;;27.81;39.91;99923.64;103955;1288;60034;-83
2023/07/02 11:31:50;;;;;;;;;;;;;;;27.81;39.80;99922.39;104045;1289;61349;-83
2023/07/02 11:34:17;;;;;;;;;;;;;;;27.82;39.79;99920.19;104102;1291;61664;-83
2023/07/02 11:36:42;;;;;;;;;;;;;;;27.82;40.10;99919.06;104618;1284;61347;-83
2023/07/02 11:39:08;;;;;;;;;;;;;;;27.82;39.92;99918.86;104512;1284;59377;-83
2023/07/02 11:41:39;;;;;;;;;;;;;;;27.82;40.03;99921.73;104645;1284;61339;-83
2023/07/02 11:44:05;;;;;;;;;;;;;;;27.82;40.12;99921.70;104414;1283;65021;-83
2023/07/02 11:46:31;;;;;;;;;;;;;;;27.82;40.25;99921.37;104401;1284;61255;-83
2023/07/02 11:48:57;;;;;;;;;;;;;;;27.82;40.21;99916.52;104413;1284;59972;-83
2023/07/02 11:51:22;;;;;;;;;;;;;;;27.82;40.22;99916.70;104710;1289;60041;-83
2023/07/02 11:53:48;;;;;;;;;;;;;;;27.82;40.28;99919.94;104709;1287;59968;-83
2023/07/02 11:56:13;;;;;;;;;;;;;;;27.81;40.20;99917.47;104606;1285;61383;-83
2023/07/02 11:58:39;;;;;;;;;;;;;;;27.81;40.19;99914.42;104569;1284;61269;-83
2023/07/02 12:01:05;;;;;;;;;;;;;;;27.82;40.14;99916.73;104430;1284;59636;-83
2023/07/02 12:03:30;;;;;;;;;;;;;;;27.81;40.32;99909.05;104416;1288;61488;-83
2023/07/02 12:05:56;;;;;;;;;;;;;;;27.82;40.29;99910.15;104375;1286;60433;-83
2023/07/02 12:08:21;;;;;;;;;;;;;;;27.82;40.39;99906.05;104477;1286;61393;-83
2023/07/02 12:10:47;;;;;;;;;;;;;;;27.82;40.56;99910.86;104590;1286;65930;-83
2023/07/02 12:13:12;;;;;;;;;;;;;;;27.83;40.54;99910.63;104312;1288;61402;-83
2023/07/02 12:15:37;;;;;;;;;;;;;;;27.82;40.60;99912.64;104321;1286;60452;-83
2023/07/02 12:18:03;;;;;;;;;;;;;;;27.83;40.55;99913.00;104466;1287;60109;-83
2023/07/02 12:20:28;;;;;;;;;;;;;;;27.83;40.46;99911.36;104414;1286;62395;-83
2023/07/02 12:22:54;;;;;;;;;;;;;;;27.84;40.55;99915.44;104110;1286;61430;-83
2023/07/02 12:25:19;;;;;;;;;;;;;;;27.83;40.82;99910.92;104215;1286;60053;-83
2023/07/02 12:27:44;;;;;;;;;;;;;;;27.84;40.47;99906.73;104366;1288;60030;-83
2023/07/02 12:30:10;;;;;;;;;;;;;;;27.83;40.61;99908.01;104457;1288;61361;-83